Current | Forecast
Updated: 11:37 AM JST on August 21, 2017
Observed at Aomori Airport, Japan
Temperature 68°F
Humidity 88%
Dew Point 64°F
Wind NE at 5 mph
Pressure 29.92 in (Falling)
Conditions Patches of Fog
Visibility 3.1 miles
UV 5 out of 16
Clouds (FEW) : 100 ft
Scattered Clouds (SCT) : 300 ft
Mostly Cloudy (BKN) : 400 ft
Yesterday's Maximum 73°F
Yesterday's Minimum 64°F approx.
Yesterday's Cooling Degree Days 4 approx.
Sunrise4:54 AM JST
Sunset6:29 PM JST
Moon Rise3:55 AM JST
Moon Set6:09 PM JST
Moon PhaseMoon Phase
Waning Crescent
Raw METARSPECI RJSA 210237Z 04004KT 360V090 5000 BCFG BR FEW001 SCT003 BKN004 20/18 Q1013 RMK 1ST001 4ST003 7ST004 A2994


Monday
. High: 73° F.
Tuesday
. High: 73° F.
Wednesday
. High: 66° F.
Thursday
. High: 69° F.
Friday
. High: 75° F.
Saturday
. High: 69° F.
Sunday
. High: 60° F.
Monday
. High: 62° F.

Units: English | Metric

Find the Weather for any City, State or Zipcode, or Country:

U.S. State List | Severe Weather | Tropical Storms | Ski Conditions
United States | Canada | Central America | South America | Asia | Europe | Australia | Africa | Islands

Weather Underground

© Copyright 2017
The Weather Company, LLC